Time;durP1;ratioP1;P1;durP2;ratioP2;P2;SDS_P1;SDS_P2;PMS_P1;PMS_P2;Temp;Humidity;BMP_temperature;BMP_pressure;BME280_temperature;BME280_humidity;BME280_pressure;Samples;Min_cycle;Max_cycle;Signal;HPM_P1;HPM_P2
2023/07/18 00:00:03;;;;;;;0.90;0.82;;;20.20;99.90;;;;;;5009065;28;20569;-69
2023/07/18 00:02:31;;;;;;;2.40;0.40;;;20.20;99.90;;;;;;5010936;28;20212;-71
2023/07/18 00:04:59;;;;;;;0.77;0.50;;;20.00;99.90;;;;;;5008865;28;20347;-70
2023/07/18 00:07:27;;;;;;;0.90;0.73;;;20.00;99.90;;;;;;5009159;28;20209;-70
2023/07/18 00:09:56;;;;;;;0.70;0.57;;;20.00;99.90;;;;;;5009733;28;20208;-70
2023/07/18 00:12:26;;;;;;;0.70;0.50;;;19.90;99.90;;;;;;5008978;28;20205;-70
2023/07/18 00:14:54;;;;;;;0.60;0.40;;;19.80;99.90;;;;;;5009649;28;20634;-70
2023/07/18 00:17:22;;;;;;;0.57;0.38;;;19.70;99.90;;;;;;5004196;28;20217;-69
2023/07/18 00:19:51;;;;;;;0.60;0.38;;;19.70;99.90;;;;;;5005774;28;20731;-69
2023/07/18 00:22:19;;;;;;;0.60;0.40;;;19.60;99.90;;;;;;5006535;28;20660;-70
2023/07/18 00:24:48;;;;;;;1.10;0.77;;;19.60;99.90;;;;;;5009174;28;20229;-69
2023/07/18 00:27:17;;;;;;;0.77;0.65;;;19.80;99.90;;;;;;5010333;28;20199;-69
2023/07/18 00:29:45;;;;;;;0.75;0.50;;;20.00;99.90;;;;;;5009635;28;20206;-70
2023/07/18 00:32:13;;;;;;;1.00;0.60;;;19.90;99.90;;;;;;5011691;28;20216;-69
2023/07/18 00:34:41;;;;;;;0.60;0.40;;;19.80;99.90;;;;;;5010458;28;20590;-70
2023/07/18 00:37:09;;;;;;;0.90;0.73;;;19.80;99.90;;;;;;5009084;28;20955;-70
2023/07/18 00:39:37;;;;;;;1.00;0.60;;;19.60;99.90;;;;;;5010344;28;20220;-68
2023/07/18 00:42:06;;;;;;;0.70;0.50;;;19.60;99.90;;;;;;5008925;28;20623;-69
2023/07/18 00:44:35;;;;;;;1.23;0.50;;;19.60;99.90;;;;;;5009193;28;20854;-67
2023/07/18 00:47:04;;;;;;;0.80;0.50;;;19.60;99.90;;;;;;5008945;28;20297;-68
2023/07/18 00:49:32;;;;;;;1.13;0.88;;;19.50;99.90;;;;;;5006688;28;20201;-68
2023/07/18 00:52:01;;;;;;;0.60;0.45;;;19.50;99.90;;;;;;5011747;28;20205;-67
2023/07/18 00:54:29;;;;;;;0.77;0.50;;;19.60;99.90;;;;;;5010383;28;20732;-70
2023/07/18 00:56:57;;;;;;;0.60;0.50;;;19.50;99.90;;;;;;5007617;28;20214;-68
2023/07/18 00:59:27;;;;;;;0.60;0.40;;;19.50;99.90;;;;;;5009721;28;20213;-68
2023/07/18 01:01:57;;;;;;;0.70;0.65;;;19.40;99.90;;;;;;5008448;28;20209;-70
2023/07/18 01:04:25;;;;;;;0.80;0.60;;;19.60;99.90;;;;;;5006758;28;20233;-70
2023/07/18 01:06:54;;;;;;;0.70;0.50;;;19.60;99.90;;;;;;5012052;28;20197;-70
2023/07/18 01:09:22;;;;;;;0.70;0.60;;;19.50;99.90;;;;;;5010864;28;20613;-70
2023/07/18 01:11:49;;;;;;;0.65;0.40;;;19.50;99.90;;;;;;5003007;28;20218;-70
2023/07/18 01:14:18;;;;;;;0.70;0.47;;;19.50;99.90;;;;;;5006190;28;20213;-68
2023/07/18 01:16:46;;;;;;;0.70;0.60;;;19.80;99.90;;;;;;5009977;28;20206;-69
2023/07/18 01:19:15;;;;;;;0.70;0.50;;;19.70;99.90;;;;;;5007477;28;20240;-68
2023/07/18 01:21:44;;;;;;;0.60;0.40;;;19.60;99.90;;;;;;5010170;28;20672;-68
2023/07/18 01:24:12;;;;;;;0.60;0.40;;;19.50;99.90;;;;;;5010211;28;20228;-68
2023/07/18 01:26:40;;;;;;;1.05;0.82;;;19.40;99.90;;;;;;5007418;28;20203;-68
2023/07/18 01:29:08;;;;;;;0.60;0.50;;;19.20;99.90;;;;;;5009373;28;20204;-69
2023/07/18 01:31:36;;;;;;;0.90;0.50;;;19.20;99.90;;;;;;5009634;28;20208;-68
2023/07/18 01:34:05;;;;;;;0.70;0.60;;;19.30;99.90;;;;;;5009709;28;20225;-69
2023/07/18 01:36:33;;;;;;;0.80;0.60;;;19.50;99.90;;;;;;5010158;28;20212;-67
2023/07/18 01:39:02;;;;;;;0.80;0.50;;;19.40;99.90;;;;;;5005622;28;20228;-69
2023/07/18 01:41:30;;;;;;;0.60;0.50;;;19.40;99.90;;;;;;5004628;28;20201;-69
2023/07/18 01:43:58;;;;;;;0.60;0.40;;;19.30;99.90;;;;;;5007292;28;20228;-70
2023/07/18 01:46:26;;;;;;;0.65;0.50;;;19.30;99.90;;;;;;5011682;28;20205;-69
2023/07/18 01:48:57;;;;;;;0.70;0.50;;;19.20;99.90;;;;;;5011684;28;20399;-70
2023/07/18 01:51:25;;;;;;;1.85;0.60;;;19.50;99.90;;;;;;5012310;28;20217;-69
2023/07/18 01:53:53;;;;;;;0.65;0.43;;;19.70;99.90;;;;;;5011397;28;20283;-69
2023/07/18 01:56:22;;;;;;;1.35;0.95;;;19.50;99.90;;;;;;5009579;28;20198;-69
2023/07/18 01:58:50;;;;;;;1.88;0.85;;;19.40;99.90;;;;;;5009779;28;20225;-70
2023/07/18 02:01:18;;;;;;;0.80;0.43;;;19.40;99.90;;;;;;5010979;28;20204;-70
2023/07/18 02:03:47;;;;;;;0.63;0.50;;;19.40;99.90;;;;;;5011160;28;20669;-70
2023/07/18 02:06:15;;;;;;;1.17;0.70;;;19.00;99.90;;;;;;5011324;28;20209;-69
2023/07/18 02:08:43;;;;;;;0.88;0.50;;;19.10;99.90;;;;;;5016286;28;20209;-70
2023/07/18 02:11:11;;;;;;;0.70;0.50;;;19.20;99.90;;;;;;5011270;28;20742;-69
2023/07/18 02:13:40;;;;;;;0.70;0.60;;;19.20;99.90;;;;;;5011185;28;20240;-69
2023/07/18 02:16:08;;;;;;;0.70;0.60;;;19.40;99.90;;;;;;5011254;28;20208;-69
2023/07/18 02:18:36;;;;;;;0.60;0.40;;;19.30;99.90;;;;;;5011344;28;20734;-69
2023/07/18 02:21:04;;;;;;;0.65;0.50;;;19.30;99.90;;;;;;5011014;28;20205;-70
2023/07/18 02:23:31;;;;;;;0.70;0.60;;;19.30;99.90;;;;;;5011280;28;20226;-71
2023/07/18 02:25:59;;;;;;;0.70;0.63;;;19.40;99.90;;;;;;5016008;28;20276;-70
2023/07/18 02:28:27;;;;;;;1.02;0.70;;;19.20;99.90;;;;;;5011221;28;20202;-69
2023/07/18 02:30:57;;;;;;;0.77;0.75;;;19.20;99.90;;;;;;5010892;28;20209;-69
2023/07/18 02:33:25;;;;;;;0.60;0.50;;;19.40;99.90;;;;;;5011155;28;20220;-69
2023/07/18 02:35:53;;;;;;;0.60;0.50;;;19.70;99.90;;;;;;5010729;28;20216;-69
2023/07/18 02:38:21;;;;;;;0.80;0.80;;;19.40;99.90;;;;;;5011070;28;20213;-69
2023/07/18 02:40:50;;;;;;;0.95;0.95;;;19.30;99.90;;;;;;5010369;28;20205;-69
2023/07/18 02:43:18;;;;;;;0.95;0.50;;;19.40;99.90;;;;;;5011112;28;20237;-68
2023/07/18 02:45:46;;;;;;;0.60;0.40;;;19.30;99.90;;;;;;5010103;28;20205;-70
2023/07/18 02:48:18;;;;;;;0.95;0.85;;;19.40;99.90;;;;;;5011555;28;20706;-69
2023/07/18 02:50:46;;;;;;;1.23;0.90;;;19.50;99.90;;;;;;5010682;28;20217;-69
2023/07/18 02:53:14;;;;;;;0.80;0.75;;;19.40;99.90;;;;;;5010873;28;20304;-70
2023/07/18 02:55:42;;;;;;;0.85;0.60;;;19.40;99.90;;;;;;5010587;28;20675;-70
2023/07/18 02:58:10;;;;;;;0.68;0.60;;;19.30;99.90;;;;;;5011263;28;20206;-70
2023/07/18 03:00:38;;;;;;;1.13;1.02;;;19.30;99.90;;;;;;5009043;28;20287;-71
2023/07/18 03:03:06;;;;;;;0.60;0.40;;;19.20;99.90;;;;;;5005083;28;20722;-70
2023/07/18 03:05:37;;;;;;;1.35;0.80;;;19.10;99.90;;;;;;5000777;28;20217;-70
2023/07/18 03:08:05;;;;;;;0.82;0.65;;;19.00;99.90;;;;;;5004528;28;20209;-69
2023/07/18 03:10:33;;;;;;;0.60;0.43;;;19.10;99.90;;;;;;5008708;28;20209;-70
2023/07/18 03:13:01;;;;;;;1.02;0.55;;;19.20;99.90;;;;;;5010804;28;20232;-69
2023/07/18 03:15:29;;;;;;;0.70;0.50;;;19.30;99.90;;;;;;5010085;28;20228;-71
2023/07/18 03:17:57;;;;;;;0.80;0.55;;;19.40;99.90;;;;;;5011872;28;20213;-70
2023/07/18 03:20:27;;;;;;;0.70;0.60;;;19.30;99.90;;;;;;5012377;28;20223;-70
2023/07/18 03:22:56;;;;;;;0.85;0.70;;;19.10;99.90;;;;;;5007600;28;20208;-70
2023/07/18 03:25:24;;;;;;;0.70;0.60;;;19.20;99.90;;;;;;5011677;28;20205;-71
2023/07/18 03:27:52;;;;;;;0.70;0.65;;;19.20;99.90;;;;;;5012325;28;20205;-70
2023/07/18 03:30:21;;;;;;;1.00;0.75;;;19.00;99.90;;;;;;5006685;28;20206;-69
2023/07/18 03:32:49;;;;;;;1.00;0.80;;;19.00;99.90;;;;;;5011257;28;20663;-69
2023/07/18 03:35:18;;;;;;;0.70;0.50;;;19.10;99.90;;;;;;5013933;28;20216;-69
2023/07/18 03:37:46;;;;;;;0.70;0.50;;;19.10;99.90;;;;;;5011344;28;20623;-69
2023/07/18 03:40:16;;;;;;;0.80;0.70;;;19.30;99.90;;;;;;5011299;28;20225;-68
2023/07/18 03:42:45;;;;;;;0.65;0.60;;;19.40;99.90;;;;;;5011371;28;20215;-68
2023/07/18 03:45:15;;;;;;;0.60;0.40;;;19.30;99.90;;;;;;5006365;28;20759;-67
2023/07/18 03:47:44;;;;;;;0.82;0.43;;;19.00;99.90;;;;;;5014206;28;20679;-67
2023/07/18 03:50:14;;;;;;;0.88;0.73;;;18.90;99.90;;;;;;5006775;28;20197;-67
2023/07/18 03:52:42;;;;;;;0.70;0.70;;;18.90;99.90;;;;;;5012280;28;20770;-68
2023/07/18 03:55:10;;;;;;;0.60;0.40;;;19.10;99.90;;;;;;5008176;28;20245;-68
2023/07/18 03:57:40;;;;;;;0.80;0.80;;;19.00;99.90;;;;;;5013043;28;20247;-68
2023/07/18 04:00:13;;;;;;;0.85;0.60;;;19.00;99.90;;;;;;5012070;28;20221;-68
2023/07/18 04:02:43;;;;;;;0.77;0.50;;;19.00;99.90;;;;;;5011498;28;20247;-67
2023/07/18 04:05:14;;;;;;;0.80;0.70;;;19.10;99.90;;;;;;5010221;28;20209;-67
2023/07/18 04:07:43;;;;;;;0.60;0.40;;;19.30;99.90;;;;;;5010138;28;20227;-67
2023/07/18 04:10:12;;;;;;;0.85;0.50;;;19.60;99.90;;;;;;5007563;28;20214;-67
2023/07/18 04:12:42;;;;;;;0.80;0.50;;;19.50;99.90;;;;;;5006950;28;20232;-68
2023/07/18 04:15:12;;;;;;;0.80;0.50;;;19.20;99.90;;;;;;5014700;28;20651;-68
2023/07/18 04:17:40;;;;;;;1.25;0.75;;;19.30;99.90;;;;;;5009548;28;20205;-68
2023/07/18 04:20:08;;;;;;;1.25;0.80;;;19.50;99.90;;;;;;5012174;28;20225;-69
2023/07/18 04:22:36;;;;;;;0.73;0.70;;;19.20;99.90;;;;;;5002805;28;20293;-69
2023/07/18 04:25:05;;;;;;;0.60;0.40;;;19.10;99.90;;;;;;5000023;28;20303;-69
2023/07/18 04:27:33;;;;;;;0.85;0.85;;;18.90;99.90;;;;;;5001709;28;20805;-69
2023/07/18 04:30:02;;;;;;;0.98;0.60;;;18.80;99.90;;;;;;5001937;28;20205;-69
2023/07/18 04:32:30;;;;;;;0.60;0.50;;;19.10;99.90;;;;;;5000827;28;20256;-69
2023/07/18 04:34:58;;;;;;;1.52;0.75;;;19.00;99.90;;;;;;5000590;28;20232;-70
2023/07/18 04:37:28;;;;;;;0.88;0.63;;;19.10;99.90;;;;;;5000237;28;20256;-69
2023/07/18 04:39:56;;;;;;;0.63;0.60;;;19.00;99.90;;;;;;4999852;28;20721;-69
2023/07/18 04:42:23;;;;;;;0.60;0.50;;;19.10;99.90;;;;;;4997800;28;20232;-68
2023/07/18 04:44:51;;;;;;;0.70;0.50;;;19.00;99.90;;;;;;4998256;28;20291;-69
2023/07/18 04:47:21;;;;;;;0.60;0.43;;;19.00;99.90;;;;;;5000775;28;20224;-68
2023/07/18 04:49:49;;;;;;;0.63;0.50;;;19.20;99.90;;;;;;4999698;28;20233;-68
2023/07/18 04:52:17;;;;;;;0.60;0.60;;;19.20;99.90;;;;;;4996293;28;20585;-68
2023/07/18 04:54:45;;;;;;;0.70;0.50;;;19.20;99.90;;;;;;4999412;28;20234;-68
2023/07/18 04:57:13;;;;;;;0.60;0.43;;;19.20;99.90;;;;;;4999842;28;20221;-68
2023/07/18 04:59:41;;;;;;;1.10;0.80;;;19.20;99.90;;;;;;4997121;28;20209;-68
2023/07/18 05:02:09;;;;;;;0.70;0.63;;;19.30;99.90;;;;;;4996327;28;20746;-68
2023/07/18 05:04:38;;;;;;;0.60;0.47;;;19.30;99.90;;;;;;4999038;28;20236;-68
2023/07/18 05:07:07;;;;;;;0.60;0.40;;;19.40;99.90;;;;;;4998172;28;21537;-68
2023/07/18 05:09:35;;;;;;;0.70;0.60;;;19.30;99.90;;;;;;4999196;28;20217;-68
2023/07/18 05:12:03;;;;;;;0.70;0.60;;;19.10;99.90;;;;;;4997635;28;20240;-69
2023/07/18 05:14:31;;;;;;;;;;;19.20;99.90;;;;;;4999375;28;20501;-68
2023/07/18 05:16:59;;;;;;;0.60;0.40;;;19.20;99.90;;;;;;4997519;28;20249;-68
2023/07/18 05:19:27;;;;;;;0.70;0.65;;;19.30;99.90;;;;;;5000285;28;20993;-69
2023/07/18 05:21:56;;;;;;;0.70;0.70;;;19.30;99.90;;;;;;4995900;28;21390;-70
2023/07/18 05:24:24;;;;;;;0.88;0.60;;;19.10;99.90;;;;;;4995907;28;20230;-69
2023/07/18 05:26:52;;;;;;;2.35;0.60;;;19.30;99.90;;;;;;4998583;28;20217;-68
2023/07/18 05:29:20;;;;;;;0.60;0.40;;;19.40;99.90;;;;;;4998699;28;20213;-69
2023/07/18 05:31:48;;;;;;;1.05;0.98;;;19.20;99.90;;;;;;4995708;28;20217;-68
2023/07/18 05:34:16;;;;;;;0.60;0.43;;;19.00;99.90;;;;;;4997652;28;20307;-68
2023/07/18 05:36:44;;;;;;;1.35;1.25;;;18.70;99.90;;;;;;4998515;28;20216;-69
2023/07/18 05:39:13;;;;;;;0.70;0.60;;;18.70;99.90;;;;;;4999069;28;20201;-68
2023/07/18 05:41:41;;;;;;;0.60;0.50;;;18.80;99.90;;;;;;4997242;28;20225;-69
2023/07/18 05:44:10;;;;;;;0.75;0.50;;;19.00;99.90;;;;;;4995085;28;20614;-69
2023/07/18 05:46:38;;;;;;;0.80;0.60;;;19.20;99.90;;;;;;4997326;28;20212;-69
2023/07/18 05:49:08;;;;;;;0.60;0.40;;;19.30;99.90;;;;;;4998773;28;20205;-69
2023/07/18 05:51:36;;;;;;;0.60;0.40;;;19.40;99.90;;;;;;4996630;28;20594;-68
2023/07/18 05:54:05;;;;;;;0.80;0.80;;;19.40;99.90;;;;;;4997035;28;20233;-69
2023/07/18 05:56:34;;;;;;;0.60;0.40;;;19.30;99.90;;;;;;4997809;28;20223;-69
2023/07/18 05:59:05;;;;;;;0.60;0.45;;;19.30;99.90;;;;;;4998346;28;20213;-68
2023/07/18 06:01:33;;;;;;;0.60;0.60;;;19.30;99.90;;;;;;4995647;28;20225;-69
2023/07/18 06:04:01;;;;;;;0.70;0.55;;;19.10;99.90;;;;;;4995226;28;20304;-69
2023/07/18 06:06:29;;;;;;;0.93;0.50;;;19.10;99.90;;;;;;4999170;28;20213;-69
2023/07/18 06:08:57;;;;;;;0.65;0.50;;;19.10;99.90;;;;;;4995488;28;20212;-69
2023/07/18 06:11:25;;;;;;;0.80;0.65;;;19.20;99.90;;;;;;4997784;28;20217;-69
2023/07/18 06:13:56;;;;;;;0.63;0.55;;;19.20;99.90;;;;;;4975747;28;21394;-68
2023/07/18 06:16:24;;;;;;;0.90;0.40;;;19.30;99.90;;;;;;4977880;28;20225;-66
2023/07/18 06:18:52;;;;;;;0.70;0.50;;;19.40;99.90;;;;;;4982741;28;20233;-68
2023/07/18 06:21:20;;;;;;;0.60;0.40;;;19.40;99.90;;;;;;4986259;28;20230;-69
2023/07/18 06:23:49;;;;;;;0.60;0.50;;;19.30;99.90;;;;;;4991043;28;20230;-68
2023/07/18 06:26:23;;;;;;;0.90;0.50;;;19.40;99.90;;;;;;4991498;28;20200;-68
2023/07/18 06:28:52;;;;;;;0.90;0.80;;;19.40;99.90;;;;;;4991705;28;20221;-68
2023/07/18 06:31:23;;;;;;;0.60;0.40;;;19.50;99.90;;;;;;4991195;28;20256;-68
2023/07/18 06:33:51;;;;;;;0.60;0.50;;;19.60;99.90;;;;;;4991660;28;20643;-68
2023/07/18 06:36:20;;;;;;;0.70;0.50;;;19.70;99.90;;;;;;4991422;28;20214;-68
2023/07/18 06:38:48;;;;;;;0.93;0.50;;;19.80;99.90;;;;;;4991740;28;20238;-68
2023/07/18 06:41:16;;;;;;;0.70;0.50;;;19.90;99.90;;;;;;4990851;28;20299;-67
2023/07/18 06:43:45;;;;;;;0.70;0.50;;;19.90;99.90;;;;;;4991385;28;20616;-69
2023/07/18 06:46:13;;;;;;;0.60;0.43;;;20.10;99.90;;;;;;4990489;28;20693;-69
2023/07/18 06:48:43;;;;;;;0.60;0.50;;;20.10;99.90;;;;;;4991579;28;20216;-68
2023/07/18 06:51:13;;;;;;;0.60;0.40;;;20.10;99.90;;;;;;4991499;28;20214;-68
2023/07/18 06:53:42;;;;;;;0.70;0.70;;;20.20;99.90;;;;;;4991644;28;20257;-68
2023/07/18 06:56:10;;;;;;;0.73;0.73;;;20.30;99.90;;;;;;4991015;28;20210;-68
2023/07/18 06:58:38;;;;;;;0.85;0.55;;;20.30;99.90;;;;;;4991445;28;20217;-68
2023/07/18 07:01:06;;;;;;;0.80;0.50;;;20.30;99.90;;;;;;4991203;28;20226;-68
2023/07/18 07:03:34;;;;;;;0.60;0.40;;;20.50;99.90;;;;;;4991287;28;20250;-69
2023/07/18 07:06:10;;;;;;;0.70;0.60;;;20.60;99.90;;;;;;4991318;28;20253;-68
2023/07/18 07:08:38;;;;;;;0.60;0.40;;;20.80;99.90;;;;;;4984687;28;20201;-68
2023/07/18 07:11:07;;;;;;;0.70;0.50;;;20.80;99.90;;;;;;4990864;28;20206;-68
2023/07/18 07:13:36;;;;;;;0.70;0.57;;;20.90;99.90;;;;;;4991174;28;20782;-68
2023/07/18 07:16:04;;;;;;;0.60;0.40;;;21.00;99.90;;;;;;4991290;28;20206;-68
2023/07/18 07:18:32;;;;;;;0.70;0.60;;;21.20;99.90;;;;;;4983643;28;20211;-68
2023/07/18 07:21:00;;;;;;;0.90;0.60;;;21.30;99.90;;;;;;4991418;28;20222;-68
2023/07/18 07:23:30;;;;;;;0.60;0.40;;;21.50;99.90;;;;;;4990919;28;20226;-68
2023/07/18 07:25:58;;;;;;;0.60;0.40;;;21.50;99.90;;;;;;4990764;28;20218;-68
2023/07/18 07:28:26;;;;;;;1.25;1.13;;;21.60;99.90;;;;;;4991186;28;20222;-68
2023/07/18 07:30:54;;;;;;;1.70;0.80;;;21.70;99.90;;;;;;4991259;28;20258;-68
2023/07/18 07:33:22;;;;;;;0.63;0.40;;;21.70;99.90;;;;;;4990665;28;20574;-68
2023/07/18 07:35:50;;;;;;;1.40;0.88;;;21.80;99.90;;;;;;4991105;28;20218;-68
2023/07/18 07:38:18;;;;;;;0.60;0.40;;;21.90;99.90;;;;;;4990962;28;20212;-68
2023/07/18 07:40:49;;;;;;;0.70;0.60;;;21.90;99.90;;;;;;4990626;28;20215;-68
2023/07/18 07:43:17;;;;;;;0.73;0.60;;;22.00;99.90;;;;;;4990389;28;20254;-68
2023/07/18 07:45:45;;;;;;;0.90;0.80;;;22.00;99.90;;;;;;4990932;28;20211;-68
2023/07/18 07:48:12;;;;;;;0.90;0.75;;;22.10;99.90;;;;;;4991100;28;20215;-68
2023/07/18 07:50:41;;;;;;;0.75;0.45;;;22.20;99.90;;;;;;4990869;28;20285;-69
2023/07/18 07:53:10;;;;;;;0.60;0.55;;;22.40;99.90;;;;;;4990583;28;20281;-69
2023/07/18 07:55:37;;;;;;;0.70;0.68;;;22.50;99.90;;;;;;4990802;28;20588;-68
2023/07/18 07:58:09;;;;;;;0.57;0.30;;;22.60;99.90;;;;;;4992246;28;20677;-68
2023/07/18 08:00:37;;;;;;;0.70;0.50;;;22.80;99.90;;;;;;4993709;28;20268;-68
2023/07/18 08:03:05;;;;;;;0.63;0.52;;;22.90;99.90;;;;;;4994041;28;20222;-70
2023/07/18 08:05:33;;;;;;;0.80;0.70;;;23.10;99.90;;;;;;4993913;28;20221;-68
2023/07/18 08:08:01;;;;;;;0.70;0.60;;;23.20;99.90;;;;;;4994226;28;20200;-68
2023/07/18 08:10:29;;;;;;;0.90;0.70;;;23.40;99.90;;;;;;4993845;28;20207;-68
2023/07/18 08:12:57;;;;;;;0.60;0.50;;;23.50;99.90;;;;;;4994008;28;20729;-68
2023/07/18 08:15:27;;;;;;;0.60;0.40;;;23.60;99.90;;;;;;4993911;28;20254;-68
2023/07/18 08:17:55;;;;;;;0.63;0.50;;;23.80;99.90;;;;;;4994117;28;20215;-68
2023/07/18 08:20:23;;;;;;;0.60;0.50;;;23.90;98.90;;;;;;4993726;28;20692;-68
2023/07/18 08:22:51;;;;;;;0.70;0.50;;;24.00;99.40;;;;;;4993932;28;20214;-68
2023/07/18 08:25:19;;;;;;;0.60;0.50;;;24.00;99.90;;;;;;4993631;28;20216;-69
2023/07/18 08:27:47;;;;;;;0.60;0.40;;;24.10;99.70;;;;;;4993943;28;20215;-68
2023/07/18 08:30:15;;;;;;;0.60;0.40;;;24.20;99.00;;;;;;4993569;28;20219;-69
2023/07/18 08:32:44;;;;;;;0.90;0.80;;;24.30;97.80;;;;;;4993870;28;20552;-68
2023/07/18 08:35:12;;;;;;;0.60;0.50;;;24.40;97.80;;;;;;4993307;28;20204;-68
2023/07/18 08:37:41;;;;;;;0.95;0.60;;;24.40;97.00;;;;;;4993860;28;20558;-68
2023/07/18 08:40:10;;;;;;;0.70;0.50;;;24.60;97.40;;;;;;4993927;28;20251;-68
2023/07/18 08:42:38;;;;;;;0.60;0.40;;;24.70;97.70;;;;;;4985585;28;20224;-69
2023/07/18 08:45:10;;;;;;;0.85;0.60;;;24.70;97.50;;;;;;4992672;28;20244;-69
2023/07/18 08:47:39;;;;;;;0.85;0.80;;;24.70;97.40;;;;;;4985536;28;20212;-68
2023/07/18 08:50:10;;;;;;;0.80;0.45;;;25.00;97.00;;;;;;4993658;28;20216;-69
2023/07/18 08:52:38;;;;;;;0.80;0.60;;;25.10;96.50;;;;;;4993564;28;20291;-68
2023/07/18 08:55:07;;;;;;;1.23;0.95;;;25.40;96.10;;;;;;4992839;28;20698;-68
2023/07/18 08:57:35;;;;;;;0.82;0.82;;;25.60;96.90;;;;;;4993102;28;20216;-69
2023/07/18 09:00:05;;;;;;;0.70;0.50;;;25.70;96.10;;;;;;4993366;28;20625;-68
2023/07/18 09:02:33;;;;;;;0.60;0.57;;;26.00;96.20;;;;;;4992878;28;20233;-69
2023/07/18 09:05:01;;;;;;;0.60;0.40;;;26.20;95.50;;;;;;4993208;28;20291;-68
2023/07/18 09:07:36;;;;;;;0.60;0.45;;;26.20;95.40;;;;;;4991765;28;20223;-70
2023/07/18 09:10:04;;;;;;;0.60;0.40;;;26.30;94.40;;;;;;4987188;28;20244;-69
2023/07/18 09:12:36;;;;;;;0.60;0.40;;;26.40;94.60;;;;;;4991752;28;20212;-69
2023/07/18 09:15:04;;;;;;;0.70;0.55;;;26.60;93.70;;;;;;4992719;28;20609;-69
2023/07/18 09:17:35;;;;;;;0.70;0.65;;;26.70;93.60;;;;;;4992516;28;20206;-69
2023/07/18 09:20:08;;;;;;;0.70;0.60;;;27.00;93.10;;;;;;4992867;28;20259;-68
2023/07/18 09:22:39;;;;;;;0.60;0.40;;;27.10;92.60;;;;;;4992389;28;20236;-69
2023/07/18 09:25:08;;;;;;;0.60;0.40;;;27.30;92.20;;;;;;4992756;28;20227;-68
2023/07/18 09:27:36;;;;;;;0.60;0.50;;;27.60;92.10;;;;;;4992297;28;20699;-69
2023/07/18 09:30:05;;;;;;;0.63;0.50;;;27.50;91.40;;;;;;4992708;28;20216;-69
2023/07/18 09:32:37;;;;;;;0.55;0.40;;;27.50;91.80;;;;;;4992270;28;20210;-69
2023/07/18 09:35:05;;;;;;;0.90;0.65;;;27.50;91.10;;;;;;4992248;28;20607;-69
2023/07/18 09:37:46;;;;;;;0.70;0.50;;;27.60;90.60;;;;;;4992056;28;20221;-69
2023/07/18 09:40:15;;;;;;;0.60;0.50;;;28.20;90.40;;;;;;4992477;28;20210;-69
2023/07/18 09:42:45;;;;;;;0.60;0.50;;;28.30;86.40;;;;;;4984330;28;20224;-69
2023/07/18 09:45:16;;;;;;;0.68;0.60;;;28.30;84.10;;;;;;4973305;28;20215;-69
2023/07/18 09:47:45;;;;;;;0.70;0.40;;;28.20;86.20;;;;;;4973523;28;20580;-69
2023/07/18 09:50:14;;;;;;;0.57;0.40;;;28.30;85.20;;;;;;4973200;28;20225;-69
2023/07/18 09:52:46;;;;;;;0.60;0.40;;;28.60;86.20;;;;;;4972386;28;20207;-71
2023/07/18 09:55:21;;;;;;;1.67;0.52;;;28.90;84.60;;;;;;4972774;28;20203;-69
2023/07/18 09:57:54;;;;;;;0.60;0.55;;;29.50;81.70;;;;;;4973093;28;20210;-69
2023/07/18 10:00:23;;;;;;;0.73;0.60;;;30.00;81.60;;;;;;4973147;28;20712;-69
2023/07/18 10:02:52;;;;;;;1.40;0.60;;;30.00;79.00;;;;;;4972306;28;20218;-69
2023/07/18 10:05:21;;;;;;;0.60;0.60;;;30.10;82.20;;;;;;4972060;28;20238;-69
2023/07/18 10:07:49;;;;;;;1.00;0.70;;;29.80;80.70;;;;;;4972640;28;20211;-69
2023/07/18 10:10:19;;;;;;;0.65;0.57;;;29.10;80.90;;;;;;4972705;28;20210;-69
2023/07/18 10:12:59;;;;;;;1.80;0.75;;;28.90;80.50;;;;;;4972157;28;20195;-69
2023/07/18 10:15:28;;;;;;;0.75;0.75;;;29.20;81.20;;;;;;4972367;28;20204;-69
2023/07/18 10:18:16;;;;;;;0.50;0.40;;;29.40;77.40;;;;;;4972554;28;20214;-70
2023/07/18 10:20:58;;;;;;;0.60;0.50;;;29.60;77.80;;;;;;4972508;28;20211;-69
2023/07/18 10:23:43;;;;;;;0.57;0.40;;;29.80;75.10;;;;;;4972094;28;20226;-69
2023/07/18 10:26:15;;;;;;;0.60;0.40;;;30.20;76.70;;;;;;4972435;28;20213;-71
2023/07/18 10:28:44;;;;;;;0.60;0.50;;;30.50;75.50;;;;;;4971656;28;20216;-69
2023/07/18 10:31:28;;;;;;;0.82;0.68;;;30.30;72.90;;;;;;4972702;28;20201;-69
2023/07/18 10:34:10;;;;;;;0.60;0.40;;;30.10;75.60;;;;;;4965483;28;20597;-70
2023/07/18 10:36:38;;;;;;;0.63;0.40;;;30.30;73.20;;;;;;4971837;28;20216;-69
2023/07/18 10:39:09;;;;;;;0.93;0.50;;;30.60;78.00;;;;;;4972183;28;20206;-69
2023/07/18 10:41:42;;;;;;;0.60;0.40;;;30.30;72.50;;;;;;4972181;28;20238;-69
2023/07/18 10:44:12;;;;;;;1.17;0.98;;;30.00;74.10;;;;;;4982498;28;20728;-69
2023/07/18 10:46:43;;;;;;;0.60;0.40;;;29.80;70.10;;;;;;4991585;28;20221;-69
2023/07/18 10:49:11;;;;;;;0.60;0.50;;;29.70;71.70;;;;;;4991593;28;20210;-69
2023/07/18 10:51:38;;;;;;;0.65;0.57;;;29.50;72.40;;;;;;4991192;28;20216;-69
2023/07/18 10:54:06;;;;;;;0.60;0.40;;;29.30;71.60;;;;;;4991127;28;20216;-69
2023/07/18 10:56:34;;;;;;;0.70;0.52;;;28.90;71.20;;;;;;4991565;28;20206;-69
2023/07/18 10:59:04;;;;;;;0.80;0.60;;;28.70;71.70;;;;;;4991605;28;20213;-69
2023/07/18 11:01:32;;;;;;;0.70;0.60;;;29.00;72.70;;;;;;4991369;28;20728;-69
2023/07/18 11:04:06;;;;;;;0.60;0.55;;;29.60;76.50;;;;;;4991062;28;20319;-69
2023/07/18 11:06:35;;;;;;;0.60;0.40;;;29.90;75.20;;;;;;4991186;28;20244;-69
2023/07/18 11:09:04;;;;;;;0.60;0.45;;;30.50;73.30;;;;;;4991169;28;20209;-70
2023/07/18 11:11:32;;;;;;;0.60;0.50;;;31.00;71.80;;;;;;4991249;28;20639;-69
2023/07/18 11:14:02;;;;;;;2.28;0.47;;;31.50;68.80;;;;;;4991173;28;20223;-69
2023/07/18 11:16:31;;;;;;;0.73;0.50;;;31.70;68.90;;;;;;4990938;28;20221;-70
2023/07/18 11:19:00;;;;;;;0.60;0.55;;;31.60;68.40;;;;;;4991408;28;21226;-69
2023/07/18 11:21:29;;;;;;;0.60;0.40;;;31.00;69.00;;;;;;4991305;28;20212;-71
2023/07/18 11:23:57;;;;;;;0.60;0.60;;;30.70;69.50;;;;;;4990838;28;20232;-69
2023/07/18 11:26:26;;;;;;;0.70;0.60;;;30.90;69.60;;;;;;4991276;28;20215;-69
2023/07/18 11:28:56;;;;;;;0.60;0.50;;;30.90;67.90;;;;;;4983614;28;20690;-70
2023/07/18 11:31:25;;;;;;;0.70;0.60;;;31.20;68.80;;;;;;4991245;28;20213;-71
2023/07/18 11:34:09;;;;;;;0.60;0.50;;;31.60;67.20;;;;;;4994164;28;20647;-70
2023/07/18 11:36:40;;;;;;;0.57;0.43;;;32.20;66.50;;;;;;4994551;28;20630;-70
2023/07/18 11:39:18;;;;;;;0.77;0.50;;;32.30;65.30;;;;;;4994636;28;21000;-69
2023/07/18 11:41:47;;;;;;;0.70;0.60;;;32.50;65.80;;;;;;4995061;28;20632;-70
2023/07/18 11:44:25;;;;;;;0.60;0.50;;;32.70;66.50;;;;;;4994356;28;20680;-69
2023/07/18 11:46:54;;;;;;;0.63;0.57;;;32.70;64.80;;;;;;4995193;28;20627;-69
2023/07/18 11:49:35;;;;;;;0.57;0.40;;;32.70;63.90;;;;;;4994677;28;20629;-70
2023/07/18 11:52:05;;;;;;;0.87;0.70;;;32.80;64.00;;;;;;4987780;28;21067;-71
2023/07/18 11:54:35;;;;;;;1.57;1.00;;;33.10;63.70;;;;;;4994076;28;20673;-69
2023/07/18 11:57:04;;;;;;;2.93;1.90;;;33.30;63.70;;;;;;4994771;28;21053;-70
2023/07/18 11:59:32;;;;;;;0.80;0.40;;;33.40;63.10;;;;;;4994011;28;21058;-71
2023/07/18 12:02:00;;;;;;;0.60;0.50;;;33.60;62.00;;;;;;4994426;28;20642;-70
2023/07/18 12:04:29;;;;;;;1.30;0.70;;;33.70;62.10;;;;;;4976429;28;20675;-70
2023/07/18 12:06:58;;;;;;;0.90;0.77;;;33.60;63.90;;;;;;4986557;28;21179;-70
2023/07/18 12:09:26;;;;;;;0.57;0.40;;;33.40;61.40;;;;;;4994281;28;21021;-70
2023/07/18 12:11:55;;;;;;;0.70;0.40;;;33.00;64.00;;;;;;4994066;28;20619;-69
2023/07/18 12:14:22;;;;;;;0.63;0.47;;;32.80;64.10;;;;;;4993848;28;20647;-69
2023/07/18 12:16:51;;;;;;;0.60;0.47;;;33.10;63.70;;;;;;4993862;28;20662;-69
2023/07/18 12:19:20;;;;;;;0.60;0.40;;;33.50;65.40;;;;;;4993861;28;20649;-69
2023/07/18 12:21:49;;;;;;;0.60;0.50;;;33.60;62.20;;;;;;4993780;28;20621;-70
2023/07/18 12:24:18;;;;;;;0.90;0.60;;;33.90;63.10;;;;;;4994143;28;21323;-70
2023/07/18 12:26:46;;;;;;;0.60;0.40;;;34.40;61.60;;;;;;4993888;28;20987;-70
2023/07/18 12:29:15;;;;;;;1.10;0.80;;;34.70;60.60;;;;;;4994189;28;20633;-69
2023/07/18 12:31:45;;;;;;;0.60;0.40;;;34.60;60.60;;;;;;4993705;28;21005;-69
2023/07/18 12:34:13;;;;;;;0.60;0.40;;;34.10;59.10;;;;;;4993646;28;20651;-69
2023/07/18 12:36:41;;;;;;;0.60;0.50;;;33.80;60.50;;;;;;4993412;28;20637;-69
2023/07/18 12:39:09;;;;;;;0.70;0.50;;;33.90;60.60;;;;;;4993477;28;21181;-69
2023/07/18 12:41:39;;;;;;;0.60;0.40;;;33.90;60.40;;;;;;4993584;28;20687;-70
2023/07/18 12:44:06;;;;;;;0.60;0.40;;;33.50;59.50;;;;;;4992025;28;20673;-69
2023/07/18 12:46:35;;;;;;;0.60;0.40;;;33.50;62.40;;;;;;4993532;28;20645;-71
2023/07/18 12:49:03;;;;;;;0.80;0.50;;;33.40;59.40;;;;;;4993772;28;20720;-69
2023/07/18 12:51:31;;;;;;;0.90;0.50;;;33.20;59.40;;;;;;4993721;28;21225;-70
2023/07/18 12:53:59;;;;;;;0.60;0.50;;;33.00;60.80;;;;;;4992952;28;20650;-69
2023/07/18 12:56:29;;;;;;;0.60;0.40;;;33.10;59.30;;;;;;4993177;28;21202;-70